sensor_id;sensor_type;location;lat;lon;timestamp;temperature;humidity
3705;DHT22;1868;48.918;9.438;2023-12-07T00:01:20;2.20;97.40
3705;DHT22;1868;48.918;9.438;2023-12-07T00:03:49;2.30;97.40
3705;DHT22;1868;48.918;9.438;2023-12-07T00:06:19;2.30;97.40
3705;DHT22;1868;48.918;9.438;2023-12-07T00:08:48;2.30;97.40
3705;DHT22;1868;48.918;9.438;2023-12-07T00:11:18;2.40;97.40
3705;DHT22;1868;48.918;9.438;2023-12-07T00:13:47;2.40;97.40
3705;DHT22;1868;48.918;9.438;2023-12-07T00:16:16;2.50;97.40
3705;DHT22;1868;48.918;9.438;2023-12-07T00:18:49;2.50;97.40
3705;DHT22;1868;48.918;9.438;2023-12-07T00:21:18;2.50;97.40
3705;DHT22;1868;48.918;9.438;2023-12-07T00:23:47;2.50;97.40
3705;DHT22;1868;48.918;9.438;2023-12-07T00:26:18;2.40;97.40
3705;DHT22;1868;48.918;9.438;2023-12-07T00:28:47;2.40;97.40
3705;DHT22;1868;48.918;9.438;2023-12-07T00:31:17;2.40;97.40
3705;DHT22;1868;48.918;9.438;2023-12-07T00:33:47;2.40;97.40
3705;DHT22;1868;48.918;9.438;2023-12-07T00:36:16;2.40;97.40
3705;DHT22;1868;48.918;9.438;2023-12-07T00:38:46;2.40;97.40
3705;DHT22;1868;48.918;9.438;2023-12-07T00:41:18;2.50;97.40
3705;DHT22;1868;48.918;9.438;2023-12-07T00:43:50;2.50;97.40
3705;DHT22;1868;48.918;9.438;2023-12-07T00:46:19;2.40;97.40
3705;DHT22;1868;48.918;9.438;2023-12-07T00:48:49;2.30;97.40
3705;DHT22;1868;48.918;9.438;2023-12-07T00:51:18;2.30;97.40
3705;DHT22;1868;48.918;9.438;2023-12-07T00:53:47;2.30;97.40
3705;DHT22;1868;48.918;9.438;2023-12-07T00:56:16;2.30;97.40
3705;DHT22;1868;48.918;9.438;2023-12-07T00:58:48;2.30;97.40
3705;DHT22;1868;48.918;9.438;2023-12-07T01:01:16;2.40;97.40
3705;DHT22;1868;48.918;9.438;2023-12-07T01:03:45;2.30;97.40
3705;DHT22;1868;48.918;9.438;2023-12-07T01:06:17;2.40;97.40
3705;DHT22;1868;48.918;9.438;2023-12-07T01:08:46;2.40;97.40
3705;DHT22;1868;48.918;9.438;2023-12-07T01:11:16;2.50;97.40
3705;DHT22;1868;48.918;9.438;2023-12-07T01:13:46;2.50;97.40
3705;DHT22;1868;48.918;9.438;2023-12-07T01:16:16;2.50;97.40
3705;DHT22;1868;48.918;9.438;2023-12-07T01:18:47;2.50;97.40
3705;DHT22;1868;48.918;9.438;2023-12-07T01:21:16;2.50;97.40
3705;DHT22;1868;48.918;9.438;2023-12-07T01:23:47;2.50;97.40
3705;DHT22;1868;48.918;9.438;2023-12-07T01:26:25;2.50;97.40
3705;DHT22;1868;48.918;9.438;2023-12-07T01:28:56;2.50;97.40
3705;DHT22;1868;48.918;9.438;2023-12-07T01:31:25;2.60;97.40
3705;DHT22;1868;48.918;9.438;2023-12-07T01:33:54;2.60;97.40
3705;DHT22;1868;48.918;9.438;2023-12-07T01:36:23;2.60;97.40
3705;DHT22;1868;48.918;9.438;2023-12-07T01:38:53;2.70;97.40
3705;DHT22;1868;48.918;9.438;2023-12-07T01:41:24;2.70;97.40
3705;DHT22;1868;48.918;9.438;2023-12-07T01:43:54;2.70;97.40
3705;DHT22;1868;48.918;9.438;2023-12-07T01:46:26;2.80;97.40
3705;DHT22;1868;48.918;9.438;2023-12-07T01:48:56;2.80;97.40
3705;DHT22;1868;48.918;9.438;2023-12-07T01:51:25;2.70;97.40
3705;DHT22;1868;48.918;9.438;2023-12-07T01:53:54;2.70;97.40
3705;DHT22;1868;48.918;9.438;2023-12-07T01:56:23;2.70;97.40
3705;DHT22;1868;48.918;9.438;2023-12-07T01:58:53;2.70;97.40
3705;DHT22;1868;48.918;9.438;2023-12-07T02:01:25;2.70;97.40
3705;DHT22;1868;48.918;9.438;2023-12-07T02:03:55;2.70;97.40
3705;DHT22;1868;48.918;9.438;2023-12-07T02:06:24;2.70;97.40
3705;DHT22;1868;48.918;9.438;2023-12-07T02:08:53;2.70;97.40
3705;DHT22;1868;48.918;9.438;2023-12-07T02:11:23;2.70;97.40
3705;DHT22;1868;48.918;9.438;2023-12-07T02:13:52;2.70;97.40
3705;DHT22;1868;48.918;9.438;2023-12-07T02:16:30;2.70;97.40
3705;DHT22;1868;48.918;9.438;2023-12-07T02:19:15;2.70;97.40
3705;DHT22;1868;48.918;9.438;2023-12-07T02:21:55;2.70;97.40
3705;DHT22;1868;48.918;9.438;2023-12-07T02:24:27;2.70;97.40
3705;DHT22;1868;48.918;9.438;2023-12-07T02:26:58;2.70;97.40
3705;DHT22;1868;48.918;9.438;2023-12-07T02:29:27;2.70;97.40
3705;DHT22;1868;48.918;9.438;2023-12-07T02:31:57;2.70;97.40
3705;DHT22;1868;48.918;9.438;2023-12-07T02:34:26;2.70;97.40
3705;DHT22;1868;48.918;9.438;2023-12-07T02:36:59;2.70;97.40
3705;DHT22;1868;48.918;9.438;2023-12-07T02:39:31;2.70;97.40
3705;DHT22;1868;48.918;9.438;2023-12-07T02:42:03;2.70;97.40
3705;DHT22;1868;48.918;9.438;2023-12-07T02:44:35;2.60;97.40
3705;DHT22;1868;48.918;9.438;2023-12-07T02:47:05;2.60;97.40
3705;DHT22;1868;48.918;9.438;2023-12-07T02:49:34;2.50;97.40
3705;DHT22;1868;48.918;9.438;2023-12-07T02:52:03;2.50;97.40
3705;DHT22;1868;48.918;9.438;2023-12-07T02:54:33;2.50;97.40
3705;DHT22;1868;48.918;9.438;2023-12-07T02:57:05;2.40;97.40
3705;DHT22;1868;48.918;9.438;2023-12-07T02:59:34;2.40;97.40
3705;DHT22;1868;48.918;9.438;2023-12-07T03:02:04;2.30;97.40
3705;DHT22;1868;48.918;9.438;2023-12-07T03:04:33;2.30;97.40
3705;DHT22;1868;48.918;9.438;2023-12-07T03:07:02;2.30;97.40
3705;DHT22;1868;48.918;9.438;2023-12-07T03:09:31;2.30;97.40
3705;DHT22;1868;48.918;9.438;2023-12-07T03:12:01;2.30;97.40
3705;DHT22;1868;48.918;9.438;2023-12-07T03:14:33;2.30;97.40
3705;DHT22;1868;48.918;9.438;2023-12-07T03:17:03;2.30;97.40
3705;DHT22;1868;48.918;9.438;2023-12-07T03:19:32;2.30;97.40
3705;DHT22;1868;48.918;9.438;2023-12-07T03:22:07;2.20;97.40
3705;DHT22;1868;48.918;9.438;2023-12-07T03:24:44;2.20;97.40
3705;DHT22;1868;48.918;9.438;2023-12-07T03:27:15;2.20;97.40
3705;DHT22;1868;48.918;9.438;2023-12-07T03:29:45;2.20;97.40
3705;DHT22;1868;48.918;9.438;2023-12-07T03:32:14;2.20;97.40
3705;DHT22;1868;48.918;9.438;2023-12-07T03:34:43;2.20;97.40
3705;DHT22;1868;48.918;9.438;2023-12-07T03:37:12;2.20;97.40
3705;DHT22;1868;48.918;9.438;2023-12-07T03:39:41;2.20;97.40
3705;DHT22;1868;48.918;9.438;2023-12-07T03:42:09;2.20;97.40
3705;DHT22;1868;48.918;9.438;2023-12-07T03:45:00;2.20;97.40
3705;DHT22;1868;48.918;9.438;2023-12-07T03:47:29;2.10;97.40
3705;DHT22;1868;48.918;9.438;2023-12-07T03:49:58;2.00;97.40
3705;DHT22;1868;48.918;9.438;2023-12-07T03:52:27;2.00;97.40
3705;DHT22;1868;48.918;9.438;2023-12-07T03:54:56;2.00;97.40
3705;DHT22;1868;48.918;9.438;2023-12-07T03:57:25;1.90;97.40
3705;DHT22;1868;48.918;9.438;2023-12-07T03:59:53;1.90;97.40
3705;DHT22;1868;48.918;9.438;2023-12-07T04:02:24;1.70;97.40
3705;DHT22;1868;48.918;9.438;2023-12-07T04:04:54;1.70;97.40
3705;DHT22;1868;48.918;9.438;2023-12-07T04:07:28;1.60;97.40
3705;DHT22;1868;48.918;9.438;2023-12-07T04:09:57;1.60;97.40
3705;DHT22;1868;48.918;9.438;2023-12-07T04:12:28;1.60;97.40
3705;DHT22;1868;48.918;9.438;2023-12-07T04:14:57;1.60;97.40
3705;DHT22;1868;48.918;9.438;2023-12-07T04:17:28;1.60;97.40
3705;DHT22;1868;48.918;9.438;2023-12-07T04:19:58;1.50;97.40
3705;DHT22;1868;48.918;9.438;2023-12-07T04:22:28;1.50;97.40
3705;DHT22;1868;48.918;9.438;2023-12-07T04:24:58;1.50;97.40
3705;DHT22;1868;48.918;9.438;2023-12-07T04:27:29;1.40;97.40
3705;DHT22;1868;48.918;9.438;2023-12-07T04:29:57;1.40;97.40
3705;DHT22;1868;48.918;9.438;2023-12-07T04:32:33;1.30;97.40
3705;DHT22;1868;48.918;9.438;2023-12-07T04:35:03;1.20;97.40
3705;DHT22;1868;48.918;9.438;2023-12-07T04:37:33;1.20;97.40
3705;DHT22;1868;48.918;9.438;2023-12-07T04:40:03;1.10;97.40
3705;DHT22;1868;48.918;9.438;2023-12-07T04:42:33;1.10;97.40
3705;DHT22;1868;48.918;9.438;2023-12-07T04:45:03;1.00;97.40
3705;DHT22;1868;48.918;9.438;2023-12-07T04:47:34;0.90;97.40
3705;DHT22;1868;48.918;9.438;2023-12-07T04:50:04;0.90;97.40
3705;DHT22;1868;48.918;9.438;2023-12-07T04:52:35;0.80;97.40
3705;DHT22;1868;48.918;9.438;2023-12-07T04:55:05;0.80;97.40
3705;DHT22;1868;48.918;9.438;2023-12-07T04:57:35;0.70;97.40
3705;DHT22;1868;48.918;9.438;2023-12-07T05:00:09;0.70;97.40
3705;DHT22;1868;48.918;9.438;2023-12-07T05:02:39;0.70;97.40
3705;DHT22;1868;48.918;9.438;2023-12-07T05:05:09;0.60;97.40
3705;DHT22;1868;48.918;9.438;2023-12-07T05:07:39;0.50;97.40
3705;DHT22;1868;48.918;9.438;2023-12-07T05:10:09;0.50;97.40
3705;DHT22;1868;48.918;9.438;2023-12-07T05:12:38;0.40;97.40
3705;DHT22;1868;48.918;9.438;2023-12-07T05:15:08;0.40;97.40
3705;DHT22;1868;48.918;9.438;2023-12-07T05:17:39;0.30;97.40
3705;DHT22;1868;48.918;9.438;2023-12-07T05:20:08;0.30;97.40
3705;DHT22;1868;48.918;9.438;2023-12-07T05:22:39;0.30;97.40
3705;DHT22;1868;48.918;9.438;2023-12-07T05:25:09;0.30;97.40
3705;DHT22;1868;48.918;9.438;2023-12-07T05:27:38;0.20;97.40
3705;DHT22;1868;48.918;9.438;2023-12-07T05:30:16;0.20;97.40
3705;DHT22;1868;48.918;9.438;2023-12-07T05:32:47;0.20;97.40
3705;DHT22;1868;48.918;9.438;2023-12-07T05:35:16;0.20;97.40
3705;DHT22;1868;48.918;9.438;2023-12-07T05:37:45;0.20;97.40
3705;DHT22;1868;48.918;9.438;2023-12-07T05:40:14;0.10;97.40
3705;DHT22;1868;48.918;9.438;2023-12-07T05:42:44;0.10;97.40
3705;DHT22;1868;48.918;9.438;2023-12-07T05:45:14;0.00;97.40
3705;DHT22;1868;48.918;9.438;2023-12-07T05:47:46;-0.10;97.40
3705;DHT22;1868;48.918;9.438;2023-12-07T05:50:15;-0.10;97.40
3705;DHT22;1868;48.918;9.438;2023-12-07T05:52:44;-0.20;97.40
3705;DHT22;1868;48.918;9.438;2023-12-07T05:55:13;-0.20;97.40
3705;DHT22;1868;48.918;9.438;2023-12-07T05:57:44;-0.10;97.40
3705;DHT22;1868;48.918;9.438;2023-12-07T06:00:15;-0.10;97.40
3705;DHT22;1868;48.918;9.438;2023-12-07T06:02:47;-0.10;97.40
3705;DHT22;1868;48.918;9.438;2023-12-07T06:05:16;-0.10;97.40
3705;DHT22;1868;48.918;9.438;2023-12-07T06:07:45;0.00;97.40
3705;DHT22;1868;48.918;9.438;2023-12-07T06:10:14;0.00;97.40
3705;DHT22;1868;48.918;9.438;2023-12-07T06:12:43;0.10;97.40
3705;DHT22;1868;48.918;9.438;2023-12-07T06:15:11;0.20;97.40
3705;DHT22;1868;48.918;9.438;2023-12-07T06:17:42;0.20;97.40
3705;DHT22;1868;48.918;9.438;2023-12-07T06:20:13;0.20;97.40
3705;DHT22;1868;48.918;9.438;2023-12-07T06:22:42;0.30;97.40
3705;DHT22;1868;48.918;9.438;2023-12-07T06:25:11;0.30;97.40
3705;DHT22;1868;48.918;9.438;2023-12-07T06:27:41;0.30;97.40
3705;DHT22;1868;48.918;9.438;2023-12-07T06:30:10;0.30;97.40
3705;DHT22;1868;48.918;9.438;2023-12-07T06:32:40;0.30;97.40
3705;DHT22;1868;48.918;9.438;2023-12-07T06:35:13;0.30;97.40
3705;DHT22;1868;48.918;9.438;2023-12-07T06:37:43;0.20;97.40
3705;DHT22;1868;48.918;9.438;2023-12-07T06:40:12;0.20;97.40
3705;DHT22;1868;48.918;9.438;2023-12-07T06:42:41;0.20;97.40
3705;DHT22;1868;48.918;9.438;2023-12-07T06:45:11;0.20;97.40
3705;DHT22;1868;48.918;9.438;2023-12-07T06:47:41;0.20;97.40
3705;DHT22;1868;48.918;9.438;2023-12-07T06:50:10;0.20;97.40
3705;DHT22;1868;48.918;9.438;2023-12-07T06:52:41;0.20;97.40
3705;DHT22;1868;48.918;9.438;2023-12-07T06:55:10;0.20;97.40
3705;DHT22;1868;48.918;9.438;2023-12-07T06:57:39;0.10;97.40
3705;DHT22;1868;48.918;9.438;2023-12-07T07:00:08;0.10;97.40
3705;DHT22;1868;48.918;9.438;2023-12-07T07:02:39;0.00;97.40
3705;DHT22;1868;48.918;9.438;2023-12-07T07:05:08;-0.10;97.40
3705;DHT22;1868;48.918;9.438;2023-12-07T07:07:40;-0.10;97.40
3705;DHT22;1868;48.918;9.438;2023-12-07T07:10:09;-0.20;97.40
3705;DHT22;1868;48.918;9.438;2023-12-07T07:12:40;-0.30;97.40
3705;DHT22;1868;48.918;9.438;2023-12-07T07:15:09;-0.30;97.40
3705;DHT22;1868;48.918;9.438;2023-12-07T07:17:38;-0.30;97.40
3705;DHT22;1868;48.918;9.438;2023-12-07T07:20:08;-0.30;97.40
3705;DHT22;1868;48.918;9.438;2023-12-07T07:22:37;-0.20;97.40
3705;DHT22;1868;48.918;9.438;2023-12-07T07:25:09;-0.20;97.40
3705;DHT22;1868;48.918;9.438;2023-12-07T07:27:37;-0.20;97.40
3705;DHT22;1868;48.918;9.438;2023-12-07T07:30:07;-0.20;97.40
3705;DHT22;1868;48.918;9.438;2023-12-07T07:32:36;-0.20;97.40
3705;DHT22;1868;48.918;9.438;2023-12-07T07:35:05;-0.10;97.40
3705;DHT22;1868;48.918;9.438;2023-12-07T07:37:35;-0.10;97.40
3705;DHT22;1868;48.918;9.438;2023-12-07T07:40:06;-0.10;97.40
3705;DHT22;1868;48.918;9.438;2023-12-07T07:42:38;-0.10;97.40
3705;DHT22;1868;48.918;9.438;2023-12-07T07:45:09;0.00;97.40
3705;DHT22;1868;48.918;9.438;2023-12-07T07:47:38;0.00;97.40
3705;DHT22;1868;48.918;9.438;2023-12-07T07:50:08;0.00;97.40
3705;DHT22;1868;48.918;9.438;2023-12-07T07:52:38;0.10;97.40
3705;DHT22;1868;48.918;9.438;2023-12-07T07:55:10;0.10;97.40
3705;DHT22;1868;48.918;9.438;2023-12-07T07:57:39;0.10;97.40
3705;DHT22;1868;48.918;9.438;2023-12-07T08:00:09;0.10;97.40
3705;DHT22;1868;48.918;9.438;2023-12-07T08:02:40;0.10;97.40
3705;DHT22;1868;48.918;9.438;2023-12-07T08:05:09;0.30;97.40
3705;DHT22;1868;48.918;9.438;2023-12-07T08:07:39;0.90;97.40
3705;DHT22;1868;48.918;9.438;2023-12-07T08:10:10;1.70;97.40
3705;DHT22;1868;48.918;9.438;2023-12-07T08:12:41;2.30;97.40
3705;DHT22;1868;48.918;9.438;2023-12-07T08:15:10;2.50;97.40
3705;DHT22;1868;48.918;9.438;2023-12-07T08:17:39;2.40;97.40
3705;DHT22;1868;48.918;9.438;2023-12-07T08:20:09;2.40;97.40
3705;DHT22;1868;48.918;9.438;2023-12-07T08:22:40;2.30;97.40
3705;DHT22;1868;48.918;9.438;2023-12-07T08:25:11;2.00;97.40
3705;DHT22;1868;48.918;9.438;2023-12-07T08:27:40;1.80;97.40
3705;DHT22;1868;48.918;9.438;2023-12-07T08:30:11;1.60;97.40
3705;DHT22;1868;48.918;9.438;2023-12-07T08:32:40;1.40;97.40
3705;DHT22;1868;48.918;9.438;2023-12-07T08:35:09;1.30;97.40
3705;DHT22;1868;48.918;9.438;2023-12-07T08:37:38;1.40;97.40
3705;DHT22;1868;48.918;9.438;2023-12-07T08:40:12;1.40;97.40
3705;DHT22;1868;48.918;9.438;2023-12-07T08:42:45;1.50;97.40
3705;DHT22;1868;48.918;9.438;2023-12-07T08:45:18;1.50;97.40
3705;DHT22;1868;48.918;9.438;2023-12-07T08:47:47;1.60;97.40
3705;DHT22;1868;48.918;9.438;2023-12-07T08:50:16;1.60;97.40
3705;DHT22;1868;48.918;9.438;2023-12-07T08:52:45;1.60;97.40
3705;DHT22;1868;48.918;9.438;2023-12-07T08:55:24;1.70;97.40
3705;DHT22;1868;48.918;9.438;2023-12-07T08:57:53;1.70;97.40
3705;DHT22;1868;48.918;9.438;2023-12-07T09:00:22;1.70;97.40
3705;DHT22;1868;48.918;9.438;2023-12-07T09:02:52;1.70;97.40
3705;DHT22;1868;48.918;9.438;2023-12-07T09:05:21;1.80;97.40
3705;DHT22;1868;48.918;9.438;2023-12-07T09:07:50;1.80;97.40
3705;DHT22;1868;48.918;9.438;2023-12-07T09:10:20;1.80;97.40
3705;DHT22;1868;48.918;9.438;2023-12-07T09:12:52;1.80;97.40
3705;DHT22;1868;48.918;9.438;2023-12-07T09:15:21;1.80;97.40
3705;DHT22;1868;48.918;9.438;2023-12-07T09:17:50;1.90;97.40
3705;DHT22;1868;48.918;9.438;2023-12-07T09:20:19;1.90;97.40
3705;DHT22;1868;48.918;9.438;2023-12-07T09:22:48;1.90;97.40
3705;DHT22;1868;48.918;9.438;2023-12-07T09:25:16;1.90;97.40
3705;DHT22;1868;48.918;9.438;2023-12-07T09:27:46;2.00;97.40
3705;DHT22;1868;48.918;9.438;2023-12-07T09:30:17;2.00;97.40
3705;DHT22;1868;48.918;9.438;2023-12-07T09:32:46;2.10;97.40
3705;DHT22;1868;48.918;9.438;2023-12-07T09:35:16;2.10;97.40
3705;DHT22;1868;48.918;9.438;2023-12-07T09:37:48;2.20;97.40
3705;DHT22;1868;48.918;9.438;2023-12-07T09:40:18;2.30;97.40
3705;DHT22;1868;48.918;9.438;2023-12-07T09:42:49;2.30;97.40
3705;DHT22;1868;48.918;9.438;2023-12-07T09:45:20;2.40;97.40
3705;DHT22;1868;48.918;9.438;2023-12-07T09:47:52;2.40;97.40
3705;DHT22;1868;48.918;9.438;2023-12-07T09:50:23;2.50;97.40
3705;DHT22;1868;48.918;9.438;2023-12-07T09:52:57;2.50;97.40
3705;DHT22;1868;48.918;9.438;2023-12-07T09:55:35;2.50;97.40
3705;DHT22;1868;48.918;9.438;2023-12-07T09:58:05;2.60;97.40
3705;DHT22;1868;48.918;9.438;2023-12-07T10:00:37;2.60;97.40
3705;DHT22;1868;48.918;9.438;2023-12-07T10:03:06;2.70;97.40
3705;DHT22;1868;48.918;9.438;2023-12-07T10:05:53;2.70;97.40
3705;DHT22;1868;48.918;9.438;2023-12-07T10:08:28;2.80;97.40
3705;DHT22;1868;48.918;9.438;2023-12-07T10:11:06;2.90;97.40
3705;DHT22;1868;48.918;9.438;2023-12-07T10:13:36;2.90;97.40
3705;DHT22;1868;48.918;9.438;2023-12-07T10:16:12;3.00;97.40
3705;DHT22;1868;48.918;9.438;2023-12-07T10:18:43;3.10;97.40
3705;DHT22;1868;48.918;9.438;2023-12-07T10:21:12;3.20;97.40
3705;DHT22;1868;48.918;9.438;2023-12-07T10:23:42;3.30;97.40
3705;DHT22;1868;48.918;9.438;2023-12-07T10:26:16;3.30;97.40
3705;DHT22;1868;48.918;9.438;2023-12-07T10:28:49;3.40;97.40
3705;DHT22;1868;48.918;9.438;2023-12-07T10:31:23;3.50;97.40
3705;DHT22;1868;48.918;9.438;2023-12-07T10:33:52;3.50;97.40
3705;DHT22;1868;48.918;9.438;2023-12-07T10:36:21;3.60;97.40
3705;DHT22;1868;48.918;9.438;2023-12-07T10:38:52;3.70;97.40
3705;DHT22;1868;48.918;9.438;2023-12-07T10:41:23;3.80;97.40
3705;DHT22;1868;48.918;9.438;2023-12-07T10:43:53;3.90;97.40
3705;DHT22;1868;48.918;9.438;2023-12-07T10:46:25;3.90;97.40
3705;DHT22;1868;48.918;9.438;2023-12-07T10:48:59;4.00;97.40
3705;DHT22;1868;48.918;9.438;2023-12-07T10:51:41;4.10;97.40
3705;DHT22;1868;48.918;9.438;2023-12-07T10:54:11;4.20;97.40
3705;DHT22;1868;48.918;9.438;2023-12-07T10:56:44;4.20;97.40
3705;DHT22;1868;48.918;9.438;2023-12-07T10:59:15;4.30;97.40
3705;DHT22;1868;48.918;9.438;2023-12-07T11:01:57;4.30;97.40
3705;DHT22;1868;48.918;9.438;2023-12-07T11:04:27;4.40;97.40
3705;DHT22;1868;48.918;9.438;2023-12-07T11:07:05;4.40;97.40
3705;DHT22;1868;48.918;9.438;2023-12-07T11:09:39;4.60;97.40
3705;DHT22;1868;48.918;9.438;2023-12-07T11:12:18;4.60;97.40
3705;DHT22;1868;48.918;9.438;2023-12-07T11:14:52;4.70;97.40
3705;DHT22;1868;48.918;9.438;2023-12-07T11:17:22;4.80;97.40
3705;DHT22;1868;48.918;9.438;2023-12-07T11:19:52;4.80;97.40
3705;DHT22;1868;48.918;9.438;2023-12-07T11:22:21;4.90;97.40
3705;DHT22;1868;48.918;9.438;2023-12-07T11:24:53;5.00;97.40
3705;DHT22;1868;48.918;9.438;2023-12-07T11:27:25;5.00;97.40
3705;DHT22;1868;48.918;9.438;2023-12-07T11:29:54;5.00;97.40
3705;DHT22;1868;48.918;9.438;2023-12-07T11:32:29;5.10;97.40
3705;DHT22;1868;48.918;9.438;2023-12-07T11:35:02;5.10;97.40
3705;DHT22;1868;48.918;9.438;2023-12-07T11:38:05;5.10;97.40
3705;DHT22;1868;48.918;9.438;2023-12-07T11:40:41;5.20;97.40
3705;DHT22;1868;48.918;9.438;2023-12-07T11:43:17;5.20;97.40
3705;DHT22;1868;48.918;9.438;2023-12-07T11:45:50;5.30;97.40
3705;DHT22;1868;48.918;9.438;2023-12-07T11:48:21;5.40;97.40
3705;DHT22;1868;48.918;9.438;2023-12-07T11:51:02;5.50;97.40
3705;DHT22;1868;48.918;9.438;2023-12-07T11:53:34;5.70;97.40
3705;DHT22;1868;48.918;9.438;2023-12-07T11:56:05;5.70;97.40
3705;DHT22;1868;48.918;9.438;2023-12-07T11:58:37;5.80;97.40
3705;DHT22;1868;48.918;9.438;2023-12-07T12:01:08;5.80;97.40
3705;DHT22;1868;48.918;9.438;2023-12-07T12:03:40;5.80;97.40
3705;DHT22;1868;48.918;9.438;2023-12-07T12:06:09;5.90;97.40
3705;DHT22;1868;48.918;9.438;2023-12-07T12:08:40;5.90;97.40
3705;DHT22;1868;48.918;9.438;2023-12-07T12:11:11;5.90;97.40
3705;DHT22;1868;48.918;9.438;2023-12-07T12:13:41;5.90;97.40
3705;DHT22;1868;48.918;9.438;2023-12-07T12:16:10;6.00;97.40
3705;DHT22;1868;48.918;9.438;2023-12-07T12:18:41;6.00;97.40
3705;DHT22;1868;48.918;9.438;2023-12-07T12:21:11;6.00;97.40
3705;DHT22;1868;48.918;9.438;2023-12-07T12:23:39;6.00;97.40
3705;DHT22;1868;48.918;9.438;2023-12-07T12:26:11;6.10;97.40
3705;DHT22;1868;48.918;9.438;2023-12-07T12:28:41;6.00;97.40
3705;DHT22;1868;48.918;9.438;2023-12-07T12:31:11;6.10;97.40
3705;DHT22;1868;48.918;9.438;2023-12-07T12:33:42;6.10;97.40
3705;DHT22;1868;48.918;9.438;2023-12-07T12:36:11;6.10;97.40
3705;DHT22;1868;48.918;9.438;2023-12-07T12:38:42;6.10;97.40
3705;DHT22;1868;48.918;9.438;2023-12-07T12:41:17;6.10;97.40
3705;DHT22;1868;48.918;9.438;2023-12-07T12:43:47;6.10;97.40
3705;DHT22;1868;48.918;9.438;2023-12-07T12:46:16;6.10;97.40
3705;DHT22;1868;48.918;9.438;2023-12-07T12:48:58;6.10;97.40
3705;DHT22;1868;48.918;9.438;2023-12-07T12:51:29;6.00;97.40
3705;DHT22;1868;48.918;9.438;2023-12-07T12:54:00;6.00;97.40
3705;DHT22;1868;48.918;9.438;2023-12-07T12:56:30;6.00;97.40
3705;DHT22;1868;48.918;9.438;2023-12-07T12:59:01;6.00;97.40
3705;DHT22;1868;48.918;9.438;2023-12-07T13:01:33;6.00;97.40
3705;DHT22;1868;48.918;9.438;2023-12-07T13:04:04;6.00;97.40
3705;DHT22;1868;48.918;9.438;2023-12-07T13:06:34;6.00;97.40
3705;DHT22;1868;48.918;9.438;2023-12-07T13:09:09;5.90;97.40
3705;DHT22;1868;48.918;9.438;2023-12-07T13:11:40;5.90;97.40
3705;DHT22;1868;48.918;9.438;2023-12-07T13:14:09;5.90;97.40
3705;DHT22;1868;48.918;9.438;2023-12-07T13:16:39;5.90;97.40
3705;DHT22;1868;48.918;9.438;2023-12-07T13:19:11;5.90;97.40
3705;DHT22;1868;48.918;9.438;2023-12-07T13:21:40;5.90;97.40
3705;DHT22;1868;48.918;9.438;2023-12-07T13:24:09;5.90;97.40
3705;DHT22;1868;48.918;9.438;2023-12-07T13:26:40;5.90;97.40
3705;DHT22;1868;48.918;9.438;2023-12-07T13:29:08;5.90;97.40
3705;DHT22;1868;48.918;9.438;2023-12-07T13:31:47;5.90;97.40
3705;DHT22;1868;48.918;9.438;2023-12-07T13:34:18;6.00;97.40
3705;DHT22;1868;48.918;9.438;2023-12-07T13:36:50;6.00;97.40
3705;DHT22;1868;48.918;9.438;2023-12-07T13:39:19;6.00;97.40
3705;DHT22;1868;48.918;9.438;2023-12-07T13:41:57;5.90;97.40
3705;DHT22;1868;48.918;9.438;2023-12-07T13:44:32;5.90;97.40
3705;DHT22;1868;48.918;9.438;2023-12-07T13:47:02;5.90;97.40
3705;DHT22;1868;48.918;9.438;2023-12-07T13:49:34;5.90;97.40
3705;DHT22;1868;48.918;9.438;2023-12-07T13:52:04;5.80;97.40
3705;DHT22;1868;48.918;9.438;2023-12-07T13:54:35;5.80;97.40
3705;DHT22;1868;48.918;9.438;2023-12-07T13:57:20;5.80;97.40
3705;DHT22;1868;48.918;9.438;2023-12-07T13:59:52;5.70;97.40
3705;DHT22;1868;48.918;9.438;2023-12-07T14:02:21;5.70;97.40
3705;DHT22;1868;48.918;9.438;2023-12-07T14:04:51;5.70;97.40
3705;DHT22;1868;48.918;9.438;2023-12-07T14:07:21;5.80;97.40
3705;DHT22;1868;48.918;9.438;2023-12-07T14:09:52;5.80;97.40
3705;DHT22;1868;48.918;9.438;2023-12-07T14:12:25;5.80;97.40
3705;DHT22;1868;48.918;9.438;2023-12-07T14:14:56;5.70;97.40
3705;DHT22;1868;48.918;9.438;2023-12-07T14:17:26;5.70;97.40
3705;DHT22;1868;48.918;9.438;2023-12-07T14:20:13;5.80;97.40
3705;DHT22;1868;48.918;9.438;2023-12-07T14:23:02;5.70;97.40
3705;DHT22;1868;48.918;9.438;2023-12-07T14:25:34;5.70;97.40
3705;DHT22;1868;48.918;9.438;2023-12-07T14:28:03;5.70;97.40
3705;DHT22;1868;48.918;9.438;2023-12-07T14:30:32;5.70;97.40
3705;DHT22;1868;48.918;9.438;2023-12-07T14:33:02;5.70;97.40
3705;DHT22;1868;48.918;9.438;2023-12-07T14:35:32;5.60;97.40
3705;DHT22;1868;48.918;9.438;2023-12-07T14:38:02;5.60;97.40
3705;DHT22;1868;48.918;9.438;2023-12-07T14:40:30;5.50;97.40
3705;DHT22;1868;48.918;9.438;2023-12-07T14:43:01;5.40;97.40
3705;DHT22;1868;48.918;9.438;2023-12-07T14:45:30;5.40;97.40
3705;DHT22;1868;48.918;9.438;2023-12-07T14:47:59;5.30;97.40
3705;DHT22;1868;48.918;9.438;2023-12-07T14:50:28;5.20;97.40
3705;DHT22;1868;48.918;9.438;2023-12-07T14:52:58;5.10;97.40
3705;DHT22;1868;48.918;9.438;2023-12-07T14:55:27;5.00;97.40
3705;DHT22;1868;48.918;9.438;2023-12-07T14:57:56;5.00;97.40
3705;DHT22;1868;48.918;9.438;2023-12-07T15:00:25;4.90;97.40
3705;DHT22;1868;48.918;9.438;2023-12-07T15:02:55;4.80;97.40
3705;DHT22;1868;48.918;9.438;2023-12-07T15:05:24;4.80;97.40
3705;DHT22;1868;48.918;9.438;2023-12-07T15:07:53;4.60;97.40
3705;DHT22;1868;48.918;9.438;2023-12-07T15:10:24;4.50;97.40
3705;DHT22;1868;48.918;9.438;2023-12-07T15:12:52;4.40;97.40
3705;DHT22;1868;48.918;9.438;2023-12-07T15:15:23;4.30;97.40
3705;DHT22;1868;48.918;9.438;2023-12-07T15:17:52;4.30;97.40
3705;DHT22;1868;48.918;9.438;2023-12-07T15:20:23;4.20;97.40
3705;DHT22;1868;48.918;9.438;2023-12-07T15:22:52;4.10;97.40
3705;DHT22;1868;48.918;9.438;2023-12-07T15:25:23;4.00;97.40
3705;DHT22;1868;48.918;9.438;2023-12-07T15:27:52;3.90;97.40
3705;DHT22;1868;48.918;9.438;2023-12-07T15:30:21;3.90;97.40
3705;DHT22;1868;48.918;9.438;2023-12-07T15:32:50;3.80;97.40
3705;DHT22;1868;48.918;9.438;2023-12-07T15:35:19;3.70;97.40
3705;DHT22;1868;48.918;9.438;2023-12-07T15:37:49;3.60;97.40
3705;DHT22;1868;48.918;9.438;2023-12-07T15:40:17;3.50;97.40
3705;DHT22;1868;48.918;9.438;2023-12-07T15:42:48;3.50;97.40
3705;DHT22;1868;48.918;9.438;2023-12-07T15:45:17;3.30;97.40
3705;DHT22;1868;48.918;9.438;2023-12-07T15:47:46;3.30;97.40
3705;DHT22;1868;48.918;9.438;2023-12-07T15:50:16;3.20;97.40
3705;DHT22;1868;48.918;9.438;2023-12-07T15:52:46;3.10;97.40
3705;DHT22;1868;48.918;9.438;2023-12-07T15:55:17;3.00;97.40
3705;DHT22;1868;48.918;9.438;2023-12-07T15:57:48;3.00;97.40
3705;DHT22;1868;48.918;9.438;2023-12-07T16:00:18;2.90;97.40
3705;DHT22;1868;48.918;9.438;2023-12-07T16:02:47;2.80;97.40
3705;DHT22;1868;48.918;9.438;2023-12-07T16:05:15;2.80;97.40
3705;DHT22;1868;48.918;9.438;2023-12-07T16:07:46;2.70;97.40
3705;DHT22;1868;48.918;9.438;2023-12-07T16:10:15;2.70;97.40
3705;DHT22;1868;48.918;9.438;2023-12-07T16:12:44;2.70;97.40
3705;DHT22;1868;48.918;9.438;2023-12-07T16:15:17;2.70;97.40
3705;DHT22;1868;48.918;9.438;2023-12-07T16:17:45;2.70;97.40
3705;DHT22;1868;48.918;9.438;2023-12-07T16:20:15;2.70;97.40
3705;DHT22;1868;48.918;9.438;2023-12-07T16:22:44;2.70;97.40
3705;DHT22;1868;48.918;9.438;2023-12-07T16:25:13;2.70;97.40
3705;DHT22;1868;48.918;9.438;2023-12-07T16:27:49;2.70;97.40
3705;DHT22;1868;48.918;9.438;2023-12-07T16:30:19;2.70;97.40
3705;DHT22;1868;48.918;9.438;2023-12-07T16:32:48;2.70;97.40
3705;DHT22;1868;48.918;9.438;2023-12-07T16:35:18;2.60;97.40
3705;DHT22;1868;48.918;9.438;2023-12-07T16:37:47;2.60;97.40
3705;DHT22;1868;48.918;9.438;2023-12-07T16:40:16;2.50;97.40